createdAt,value
2018-03-20T00:02:14.102Z,99.90
2018-03-20T00:04:42.365Z,87.00
2018-03-20T00:07:10.741Z,94.60
2018-03-20T00:09:39.023Z,88.60
2018-03-20T00:12:07.398Z,99.30
2018-03-20T00:14:35.687Z,99.90
2018-03-20T00:17:04.158Z,99.30
2018-03-20T00:19:32.447Z,99.90
2018-03-20T00:22:00.705Z,99.90
2018-03-20T00:24:28.992Z,99.90
2018-03-20T00:26:57.953Z,99.90
2018-03-20T00:29:26.254Z,99.90
2018-03-20T00:31:54.536Z,99.90
2018-03-20T00:34:22.801Z,99.90
2018-03-20T00:36:51.084Z,99.90
2018-03-20T00:39:19.348Z,99.90
2018-03-20T00:41:47.642Z,99.90
2018-03-20T00:44:15.901Z,99.90
2018-03-20T00:46:44.196Z,99.90
2018-03-20T00:49:12.457Z,99.90
2018-03-20T00:51:40.765Z,99.90
2018-03-20T00:54:09.074Z,99.90
2018-03-20T00:56:38.134Z,99.90
2018-03-20T00:59:06.392Z,99.90
2018-03-20T01:01:34.687Z,99.90
2018-03-20T01:04:02.952Z,99.90
2018-03-20T01:06:31.211Z,98.20
2018-03-20T01:08:59.496Z,97.60
2018-03-20T01:11:27.765Z,99.90
2018-03-20T01:13:56.070Z,99.90
2018-03-20T01:16:24.342Z,99.90
2018-03-20T01:18:52.603Z,99.90
2018-03-20T01:21:20.895Z,99.90
2018-03-20T01:23:49.169Z,99.90
2018-03-20T01:26:17.436Z,99.90
2018-03-20T01:28:45.841Z,99.90
2018-03-20T01:31:14.107Z,99.90
2018-03-20T01:33:42.485Z,99.90
2018-03-20T01:36:10.748Z,99.90
2018-03-20T01:38:39.018Z,99.90
2018-03-20T01:41:07.284Z,99.90
2018-03-20T01:43:35.607Z,99.90
2018-03-20T01:46:04.663Z,99.90
2018-03-20T01:48:32.926Z,99.90
2018-03-20T01:51:01.225Z,97.70
2018-03-20T01:53:29.496Z,99.90
2018-03-20T01:55:57.783Z,99.90
2018-03-20T01:58:26.061Z,99.90
2018-03-20T02:00:54.440Z,99.90
2018-03-20T02:03:22.812Z,99.90
2018-03-20T02:05:51.093Z,99.90
2018-03-20T02:08:19.357Z,99.90
2018-03-20T02:10:47.651Z,99.90
2018-03-20T02:13:16.030Z,99.90
2018-03-20T02:15:44.275Z,91.60
2018-03-20T02:18:12.581Z,90.70
2018-03-20T02:20:40.873Z,91.40
2018-03-20T02:23:09.152Z,92.40
2018-03-20T02:25:37.412Z,98.30
2018-03-20T02:28:05.691Z,97.10
2018-03-20T02:30:33.970Z,99.90
2018-03-20T02:33:02.263Z,99.90
2018-03-20T02:35:31.241Z,99.90
2018-03-20T02:37:59.529Z,99.80
2018-03-20T02:40:28.584Z,99.90
2018-03-20T02:42:56.865Z,99.90
2018-03-20T02:45:25.121Z,99.90
2018-03-20T02:47:53.404Z,99.90
2018-03-20T02:50:21.660Z,99.90
2018-03-20T02:52:50.709Z,99.90
2018-03-20T02:55:18.977Z,99.90
2018-03-20T02:57:47.260Z,99.90
2018-03-20T03:00:15.539Z,99.90
2018-03-20T03:02:43.800Z,99.90
2018-03-20T03:05:12.075Z,99.90
2018-03-20T03:07:40.366Z,99.90
2018-03-20T03:10:08.648Z,99.90
2018-03-20T03:12:37.033Z,99.90
2018-03-20T03:15:05.304Z,99.90
2018-03-20T03:17:33.587Z,99.90
2018-03-20T03:20:01.965Z,99.90
2018-03-20T03:22:30.229Z,99.90
2018-03-20T03:24:58.509Z,99.90
2018-03-20T03:27:26.775Z,99.90
2018-03-20T03:29:55.064Z,99.90
2018-03-20T03:32:23.334Z,99.90
2018-03-20T03:34:51.612Z,99.90
2018-03-20T03:37:19.876Z,99.90
2018-03-20T03:39:48.185Z,99.90
2018-03-20T03:42:16.439Z,99.90
2018-03-20T03:44:44.728Z,99.90
2018-03-20T03:47:12.996Z,99.90
2018-03-20T03:49:41.280Z,99.90
2018-03-20T03:52:09.547Z,99.90
2018-03-20T03:54:37.815Z,99.90
2018-03-20T03:57:06.091Z,99.90
2018-03-20T03:59:34.347Z,98.00
2018-03-20T04:02:02.636Z,99.90
2018-03-20T04:04:30.897Z,99.90
2018-03-20T04:06:59.180Z,99.90
2018-03-20T04:09:27.437Z,99.90
2018-03-20T04:11:56.489Z,99.90
2018-03-20T04:14:24.764Z,99.90
2018-03-20T04:16:53.035Z,99.90
2018-03-20T04:19:21.296Z,99.90
2018-03-20T04:21:49.628Z,99.90
2018-03-20T04:24:17.900Z,99.90
2018-03-20T04:26:46.490Z,99.90
2018-03-20T04:29:14.762Z,99.90
2018-03-20T04:31:43.030Z,99.90
2018-03-20T04:34:11.321Z,99.90
2018-03-20T04:36:39.594Z,99.90
2018-03-20T04:39:07.887Z,99.90
2018-03-20T04:41:36.236Z,99.90
2018-03-20T04:44:04.611Z,99.90
2018-03-20T04:46:32.875Z,99.90
2018-03-20T04:49:01.153Z,99.90
2018-03-20T04:51:29.417Z,99.90
2018-03-20T04:53:57.728Z,99.90
2018-03-20T04:56:25.996Z,99.90
2018-03-20T04:58:54.281Z,99.90
2018-03-20T05:01:22.568Z,99.90
2018-03-20T05:03:50.817Z,99.90
2018-03-20T05:06:19.919Z,99.90
2018-03-20T05:08:48.995Z,99.90
2018-03-20T05:11:17.298Z,99.90
2018-03-20T05:13:45.561Z,99.90
2018-03-20T05:16:13.845Z,99.90
2018-03-20T05:18:44.701Z,99.90
2018-03-20T05:24:10.696Z,99.90
2018-03-20T05:26:39.745Z,99.90
2018-03-20T05:29:07.998Z,99.90
2018-03-20T05:31:36.340Z,99.90
2018-03-20T05:34:05.370Z,99.90
2018-03-20T05:36:33.628Z,99.90
2018-03-20T05:39:01.917Z,99.90
2018-03-20T05:41:30.201Z,99.90
2018-03-20T05:43:58.509Z,99.90
2018-03-20T05:46:32.427Z,99.90
2018-03-20T05:49:06.471Z,99.90
2018-03-20T05:51:41.204Z,99.90
2018-03-20T05:54:10.255Z,99.90
2018-03-20T05:56:38.516Z,99.90
2018-03-20T05:59:06.799Z,99.90
2018-03-20T06:01:35.088Z,99.90
2018-03-20T06:04:03.379Z,99.90
2018-03-20T06:06:31.639Z,99.90
2018-03-20T06:08:59.916Z,99.90
2018-03-20T06:11:28.182Z,99.90
2018-03-20T06:13:56.540Z,99.90
2018-03-20T06:16:24.804Z,99.90
2018-03-20T06:18:53.102Z,99.90
2018-03-20T06:21:21.360Z,99.90
2018-03-20T06:23:49.629Z,99.90
2018-03-20T06:26:18.678Z,99.90
2018-03-20T06:28:46.936Z,99.90
2018-03-20T06:31:15.221Z,99.90
2018-03-20T06:33:43.502Z,99.90
2018-03-20T06:36:11.989Z,99.90
2018-03-20T06:38:40.241Z,99.90
2018-03-20T06:41:08.526Z,99.90
2018-03-20T06:43:36.805Z,99.90
2018-03-20T06:46:05.101Z,99.90
2018-03-20T06:48:33.381Z,99.90
2018-03-20T06:51:01.656Z,99.90
2018-03-20T06:53:30.030Z,99.90
2018-03-20T06:55:58.302Z,99.90
2018-03-20T06:58:26.580Z,99.90
2018-03-20T07:00:54.848Z,99.90
2018-03-20T07:03:23.122Z,99.90
2018-03-20T07:05:51.379Z,99.90
2018-03-20T07:08:19.663Z,99.90
2018-03-20T07:10:47.935Z,99.90
2018-03-20T07:13:16.208Z,99.90
2018-03-20T07:15:44.468Z,99.90
2018-03-20T07:18:13.544Z,99.90
2018-03-20T07:20:42.570Z,99.90
2018-03-20T07:23:10.840Z,99.90
2018-03-20T07:25:39.880Z,99.90
2018-03-20T07:28:08.162Z,99.90
2018-03-20T07:30:36.444Z,99.90
2018-03-20T07:33:04.820Z,99.90
2018-03-20T07:35:33.092Z,99.90
2018-03-20T07:38:01.354Z,99.90
2018-03-20T07:40:29.654Z,99.90
2018-03-20T07:42:57.908Z,99.90
2018-03-20T07:45:26.308Z,99.90
2018-03-20T07:47:54.580Z,99.90
2018-03-20T07:50:22.852Z,99.90
2018-03-20T07:52:51.107Z,99.90
2018-03-20T07:55:19.432Z,99.90
2018-03-20T07:57:47.689Z,99.90
2018-03-20T08:00:15.941Z,99.90
2018-03-20T08:02:44.216Z,99.90
2018-03-20T08:05:12.491Z,99.90
2018-03-20T08:07:40.801Z,99.90
2018-03-20T08:10:09.065Z,99.90
2018-03-20T08:12:37.345Z,99.90
2018-03-20T08:15:05.628Z,99.90
2018-03-20T08:17:33.904Z,99.90
2018-03-20T08:20:02.194Z,99.90
2018-03-20T08:22:30.468Z,99.90
2018-03-20T08:24:58.744Z,99.90
2018-03-20T08:27:27.045Z,99.90
2018-03-20T08:29:56.099Z,99.90
2018-03-20T08:32:24.372Z,99.90
2018-03-20T08:34:52.648Z,99.90
2018-03-20T08:37:20.920Z,99.90
2018-03-20T08:39:49.189Z,99.90
2018-03-20T08:42:17.458Z,99.90
2018-03-20T08:44:45.740Z,99.90
2018-03-20T08:47:14.000Z,99.90
2018-03-20T08:49:42.294Z,99.90
2018-03-20T08:52:10.555Z,99.90
2018-03-20T08:54:38.864Z,99.90
2018-03-20T08:57:07.246Z,99.90
2018-03-20T08:59:35.513Z,99.90
2018-03-20T09:02:03.808Z,99.90
2018-03-20T09:04:32.068Z,99.90
2018-03-20T09:07:00.376Z,99.90
2018-03-20T09:09:28.639Z,99.90
2018-03-20T09:11:56.923Z,99.90
2018-03-20T09:14:25.195Z,99.90
2018-03-20T09:16:53.481Z,99.90
2018-03-20T09:19:21.761Z,99.90
2018-03-20T09:21:50.241Z,99.90
2018-03-20T09:24:18.495Z,99.90
2018-03-20T09:26:46.771Z,99.90
2018-03-20T09:29:15.081Z,99.90
2018-03-20T09:31:43.338Z,99.90
2018-03-20T09:34:11.633Z,99.90
2018-03-20T09:36:40.014Z,99.90
2018-03-20T09:39:08.301Z,99.90
2018-03-20T09:41:36.664Z,99.90
2018-03-20T09:44:04.950Z,99.90
2018-03-20T09:46:33.228Z,99.90
2018-03-20T09:49:01.563Z,99.90
2018-03-20T09:51:30.565Z,99.90
2018-03-20T09:53:58.871Z,99.90
2018-03-20T09:56:27.138Z,99.90
2018-03-20T09:58:55.417Z,99.90
2018-03-20T10:01:23.802Z,99.90
2018-03-20T10:03:52.052Z,99.90
2018-03-20T10:06:20.338Z,99.90
2018-03-20T10:08:48.736Z,99.90
2018-03-20T10:11:17.011Z,99.90
2018-03-20T10:13:45.313Z,99.90
2018-03-20T10:16:13.592Z,99.90
2018-03-20T10:18:42.626Z,99.90
2018-03-20T10:21:10.921Z,99.90
2018-03-20T10:23:39.203Z,99.90
2018-03-20T10:26:07.600Z,99.90
2018-03-20T10:28:35.974Z,99.90
2018-03-20T10:31:04.247Z,99.90
2018-03-20T10:33:32.651Z,99.90
2018-03-20T10:36:00.915Z,99.90
2018-03-20T10:38:29.202Z,99.90
2018-03-20T10:40:57.466Z,99.90
2018-03-20T10:43:25.752Z,99.90
2018-03-20T10:45:54.142Z,99.90
2018-03-20T10:48:22.424Z,99.90
2018-03-20T10:50:50.777Z,99.90
2018-03-20T10:53:19.155Z,99.90
2018-03-20T10:55:47.420Z,99.90
2018-03-20T10:58:15.922Z,99.90
2018-03-20T11:00:50.086Z,99.90
2018-03-20T11:03:18.388Z,99.90
2018-03-20T11:05:46.659Z,99.90
2018-03-20T11:08:14.932Z,99.90
2018-03-20T11:10:43.224Z,99.90
2018-03-20T11:13:11.491Z,99.90
2018-03-20T11:15:39.778Z,99.90
2018-03-20T11:18:08.048Z,99.90
2018-03-20T11:20:37.064Z,99.90
2018-03-20T11:23:05.353Z,99.90
2018-03-20T11:25:33.636Z,99.90
2018-03-20T11:28:01.926Z,99.90
2018-03-20T11:30:30.984Z,99.90
2018-03-20T11:32:59.266Z,99.90
2018-03-20T11:35:27.562Z,99.90
2018-03-20T11:37:57.328Z,99.90
2018-03-20T11:40:25.624Z,99.90
2018-03-20T11:42:53.889Z,99.90
2018-03-20T11:45:22.170Z,99.90
2018-03-20T11:47:50.453Z,99.90
2018-03-20T11:50:18.724Z,99.90
2018-03-20T11:52:47.779Z,99.90
2018-03-20T11:55:16.834Z,99.90
2018-03-20T11:57:45.116Z,99.90
2018-03-20T12:00:13.391Z,99.90
2018-03-20T12:02:41.680Z,99.90
2018-03-20T12:05:09.939Z,99.90
2018-03-20T12:07:50.135Z,99.90
2018-03-20T12:10:19.168Z,99.90
2018-03-20T12:12:47.437Z,99.90
2018-03-20T12:15:15.725Z,99.90
2018-03-20T12:17:44.021Z,99.90
2018-03-20T12:20:12.305Z,99.90
2018-03-20T12:22:40.585Z,99.90
2018-03-20T12:25:09.066Z,99.90
2018-03-20T12:27:37.316Z,99.90
2018-03-20T12:30:05.622Z,99.90
2018-03-20T12:32:33.883Z,99.90
2018-03-20T12:35:02.185Z,99.90
2018-03-20T12:37:30.468Z,99.90
2018-03-20T12:39:58.822Z,99.90
2018-03-20T12:42:27.089Z,99.90
2018-03-20T12:44:55.402Z,99.90
2018-03-20T12:47:23.668Z,99.90
2018-03-20T12:49:52.033Z,99.90
2018-03-20T12:52:20.325Z,99.90
2018-03-20T12:54:48.593Z,99.90
2018-03-20T12:57:16.885Z,99.90
2018-03-20T12:59:45.147Z,99.90
2018-03-20T13:02:14.328Z,99.90
2018-03-20T13:04:42.598Z,99.90
2018-03-20T13:07:10.882Z,99.90
2018-03-20T13:09:39.135Z,99.90
2018-03-20T13:12:07.431Z,99.90
2018-03-20T13:14:35.693Z,99.90
2018-03-20T13:17:04.007Z,99.90
2018-03-20T13:19:32.260Z,99.90
2018-03-20T13:22:00.535Z,99.90
2018-03-20T13:24:28.812Z,99.90
2018-03-20T13:26:57.077Z,99.90
2018-03-20T13:29:25.409Z,99.90
2018-03-20T13:31:53.675Z,99.90
2018-03-20T13:34:21.959Z,99.90
2018-03-20T13:36:50.329Z,99.90
2018-03-20T13:39:18.623Z,99.90
2018-03-20T13:41:46.906Z,99.90
2018-03-20T13:44:15.185Z,99.90
2018-03-20T13:46:44.213Z,99.90
2018-03-20T13:49:12.500Z,99.90
2018-03-20T13:51:40.753Z,99.90
2018-03-20T13:54:09.037Z,99.90
2018-03-20T13:56:37.300Z,99.90
2018-03-20T13:59:05.643Z,99.90
2018-03-20T14:01:33.940Z,99.90
2018-03-20T14:04:02.201Z,99.90
2018-03-20T14:06:30.492Z,99.90
2018-03-20T14:08:59.550Z,99.90
2018-03-20T14:11:27.840Z,99.90
2018-03-20T14:13:56.110Z,99.90
2018-03-20T14:16:24.390Z,99.90
2018-03-20T14:18:52.676Z,99.90
2018-03-20T14:21:20.968Z,99.90
2018-03-20T14:23:49.211Z,99.90
2018-03-20T14:26:17.532Z,99.90
2018-03-20T14:28:46.579Z,99.90
2018-03-20T14:31:14.853Z,99.90
2018-03-20T14:33:43.132Z,99.90
2018-03-20T14:36:11.396Z,99.90
2018-03-20T14:38:39.705Z,99.90
2018-03-20T14:41:07.975Z,99.90
2018-03-20T14:43:36.248Z,99.90
2018-03-20T14:46:04.530Z,99.90
2018-03-20T14:48:32.807Z,99.90
2018-03-20T14:51:01.072Z,99.90
2018-03-20T14:53:29.345Z,99.90
2018-03-20T14:55:57.605Z,99.90
2018-03-20T14:58:25.878Z,99.90
2018-03-20T15:00:54.137Z,99.90
2018-03-20T15:03:23.204Z,99.90
2018-03-20T15:05:51.460Z,99.90
2018-03-20T15:08:19.721Z,99.90
2018-03-20T15:10:53.913Z,99.90
2018-03-20T15:13:22.168Z,99.90
2018-03-20T15:15:51.220Z,99.90
2018-03-20T15:18:19.502Z,99.90
2018-03-20T15:20:47.792Z,99.90
2018-03-20T15:23:16.051Z,99.90
2018-03-20T15:25:44.325Z,99.90
2018-03-20T15:28:12.577Z,99.90
2018-03-20T15:30:40.895Z,99.90
2018-03-20T15:33:09.157Z,99.90
2018-03-20T15:35:37.416Z,99.90
2018-03-20T15:38:05.683Z,99.90
2018-03-20T15:40:34.012Z,99.90
2018-03-20T15:43:02.279Z,99.90
2018-03-20T15:45:30.537Z,99.90
2018-03-20T15:47:58.845Z,99.90
2018-03-20T15:50:27.120Z,99.90
2018-03-20T15:52:55.403Z,99.90
2018-03-20T15:55:23.784Z,99.90
2018-03-20T15:57:52.056Z,99.90
2018-03-20T16:00:20.328Z,99.90
2018-03-20T16:02:48.600Z,96.80
2018-03-20T16:05:16.855Z,97.40
2018-03-20T16:07:45.149Z,99.90
2018-03-20T16:10:13.399Z,99.90
2018-03-20T16:12:41.676Z,99.90
2018-03-20T16:15:09.987Z,99.90
2018-03-20T16:17:38.248Z,99.90
2018-03-20T16:20:06.538Z,98.80
2018-03-20T16:22:34.789Z,93.80
2018-03-20T16:25:03.056Z,90.40
2018-03-20T16:27:31.367Z,90.20
2018-03-20T16:29:59.646Z,87.20
2018-03-20T16:32:27.896Z,92.40
2018-03-20T16:34:56.212Z,95.80
2018-03-20T16:37:24.461Z,95.10
2018-03-20T16:39:52.757Z,94.80
2018-03-20T16:42:21.010Z,89.20
2018-03-20T16:44:49.319Z,87.30
2018-03-20T16:47:17.697Z,87.20
2018-03-20T16:49:46.111Z,90.50
2018-03-20T16:52:14.364Z,96.30
2018-03-20T16:54:42.682Z,99.60
2018-03-20T16:57:10.992Z,99.90
2018-03-20T16:59:39.248Z,99.90
2018-03-20T17:02:07.530Z,99.90
2018-03-20T17:04:35.792Z,99.90
2018-03-20T17:07:04.842Z,99.90
2018-03-20T17:09:33.117Z,99.90
2018-03-20T17:12:01.510Z,99.90
2018-03-20T17:14:29.764Z,99.90
2018-03-20T17:16:58.025Z,99.90
2018-03-20T17:19:26.336Z,99.90
2018-03-20T17:21:54.601Z,99.90
2018-03-20T17:24:22.865Z,99.90
2018-03-20T17:26:51.117Z,99.90
2018-03-20T17:29:19.388Z,99.90
2018-03-20T17:31:47.658Z,99.90
2018-03-20T17:34:16.686Z,99.90
2018-03-20T17:36:45.022Z,99.90
2018-03-20T17:39:13.258Z,99.90
2018-03-20T17:41:41.529Z,99.90
2018-03-20T17:44:09.801Z,99.90
2018-03-20T17:46:38.052Z,99.90
2018-03-20T17:49:06.361Z,99.90
2018-03-20T17:51:34.648Z,99.90
2018-03-20T17:54:02.927Z,99.90
2018-03-20T17:56:31.215Z,99.90
2018-03-20T17:58:59.468Z,99.90
2018-03-20T18:01:27.729Z,99.90
2018-03-20T18:03:56.008Z,99.90
2018-03-20T18:06:24.280Z,99.90
2018-03-20T18:08:52.593Z,99.90
2018-03-20T18:11:20.839Z,99.90
2018-03-20T18:13:49.165Z,99.90
2018-03-20T18:16:17.432Z,99.90
2018-03-20T18:18:45.708Z,99.90
2018-03-20T18:21:13.993Z,99.90
2018-03-20T18:23:42.380Z,99.90
2018-03-20T18:26:10.647Z,99.90
2018-03-20T18:28:38.956Z,99.90
2018-03-20T18:31:07.991Z,99.90
2018-03-20T18:33:36.257Z,99.90
2018-03-20T18:36:04.591Z,99.90
2018-03-20T18:38:32.887Z,99.90
2018-03-20T18:41:01.906Z,99.90
2018-03-20T18:43:30.170Z,99.90
2018-03-20T18:45:58.453Z,99.90
2018-03-20T18:48:26.875Z,99.90
2018-03-20T18:50:55.353Z,99.90
2018-03-20T18:53:23.609Z,99.90
2018-03-20T18:55:51.908Z,99.90
2018-03-20T18:58:20.159Z,99.90
2018-03-20T19:00:48.433Z,99.90
2018-03-20T19:03:16.701Z,99.90
2018-03-20T19:05:45.004Z,99.90
2018-03-20T19:08:13.257Z,99.90
2018-03-20T19:10:41.535Z,99.90
2018-03-20T19:13:09.820Z,99.90
2018-03-20T19:15:38.123Z,99.90
2018-03-20T19:18:06.390Z,99.90
2018-03-20T19:20:34.656Z,99.90
2018-03-20T19:23:02.933Z,99.90
2018-03-20T19:25:31.182Z,99.90
2018-03-20T19:27:59.457Z,99.90
2018-03-20T19:30:28.473Z,99.90
2018-03-20T19:32:56.748Z,99.90
2018-03-20T19:35:25.043Z,99.90
2018-03-20T19:37:53.340Z,99.90
2018-03-20T19:40:21.599Z,99.90
2018-03-20T19:42:49.869Z,99.90
2018-03-20T19:45:18.166Z,99.90
2018-03-20T19:47:46.433Z,99.90
2018-03-20T19:50:14.713Z,99.90
2018-03-20T19:52:42.990Z,99.90
2018-03-20T19:55:11.264Z,99.90
2018-03-20T19:57:40.545Z,99.90
2018-03-20T20:00:08.877Z,99.90
2018-03-20T20:02:37.220Z,99.90
2018-03-20T20:05:05.478Z,99.90
2018-03-20T20:07:33.749Z,99.90
2018-03-20T20:10:02.040Z,99.90
2018-03-20T20:12:30.341Z,99.90
2018-03-20T20:14:58.615Z,99.90
2018-03-20T20:17:26.905Z,99.90
2018-03-20T20:20:02.094Z,99.90
2018-03-20T20:22:31.224Z,99.90
2018-03-20T20:24:59.489Z,99.90
2018-03-20T20:27:27.753Z,99.90
2018-03-20T20:29:56.487Z,99.90
2018-03-20T20:32:24.737Z,99.90
2018-03-20T20:34:53.012Z,99.90
2018-03-20T20:37:21.378Z,99.90
2018-03-20T20:39:49.668Z,99.90
2018-03-20T20:42:17.954Z,99.90
2018-03-20T20:44:46.290Z,99.90
2018-03-20T20:47:14.568Z,99.90
2018-03-20T20:49:42.894Z,99.90
2018-03-20T20:52:11.140Z,99.90
2018-03-20T20:54:39.433Z,99.90
2018-03-20T20:57:07.731Z,99.90
2018-03-20T20:59:35.997Z,99.90
2018-03-20T21:02:04.278Z,99.90
2018-03-20T21:04:32.659Z,99.90
2018-03-20T21:07:01.038Z,99.90
2018-03-20T21:09:29.302Z,99.90
2018-03-20T21:11:57.608Z,99.90
2018-03-20T21:14:25.867Z,99.90
2018-03-20T21:16:54.132Z,99.90
2018-03-20T21:19:22.404Z,99.90
2018-03-20T21:21:50.723Z,99.90
2018-03-20T21:24:18.969Z,99.90
2018-03-20T21:26:47.230Z,99.90
2018-03-20T21:29:15.527Z,99.90
2018-03-20T21:31:43.798Z,99.90
2018-03-20T21:34:12.048Z,99.90
2018-03-20T21:36:40.363Z,99.90
2018-03-20T21:39:08.693Z,99.90
2018-03-20T21:41:36.964Z,99.90
2018-03-20T21:44:05.234Z,99.90
2018-03-20T21:46:34.269Z,99.90
2018-03-20T21:49:02.529Z,99.90
2018-03-20T21:51:30.792Z,99.90
2018-03-20T21:53:59.056Z,99.90
2018-03-20T21:56:28.089Z,99.90
2018-03-20T21:58:56.356Z,99.90
2018-03-20T22:01:24.649Z,99.90
2018-03-20T22:03:52.923Z,99.90
2018-03-20T22:06:21.226Z,99.90
2018-03-20T22:08:49.500Z,99.90
2018-03-20T22:11:17.763Z,99.90
2018-03-20T22:13:46.074Z,99.90
2018-03-20T22:16:14.434Z,99.90
2018-03-20T22:18:42.813Z,99.90
2018-03-20T22:21:11.073Z,99.90
2018-03-20T22:23:39.367Z,99.90
2018-03-20T22:26:07.718Z,99.90
2018-03-20T22:28:36.028Z,99.90
2018-03-20T22:31:04.406Z,99.90
2018-03-20T22:33:32.664Z,99.90
2018-03-20T22:36:00.971Z,99.90
2018-03-20T22:38:29.229Z,99.90
2018-03-20T22:40:57.518Z,99.90
2018-03-20T22:43:25.759Z,99.90
2018-03-20T22:45:54.043Z,99.90
2018-03-20T22:48:22.291Z,99.90
2018-03-20T22:50:51.336Z,99.90
2018-03-20T22:53:19.591Z,99.90
2018-03-20T22:55:47.881Z,99.90
2018-03-20T22:58:16.124Z,99.90
2018-03-20T23:00:44.453Z,99.90
2018-03-20T23:03:12.741Z,99.90
2018-03-20T23:05:40.998Z,99.90
2018-03-20T23:08:09.277Z,99.90
2018-03-20T23:10:37.527Z,99.90
2018-03-20T23:13:05.807Z,99.90
2018-03-20T23:15:34.120Z,99.90
2018-03-20T23:18:02.384Z,99.90
2018-03-20T23:20:30.640Z,99.90
2018-03-20T23:22:59.348Z,99.90
2018-03-20T23:25:27.597Z,99.90
2018-03-20T23:27:55.874Z,99.90
2018-03-20T23:30:24.179Z,99.90
2018-03-20T23:32:52.448Z,99.90
2018-03-20T23:35:20.707Z,99.90
2018-03-20T23:37:48.982Z,99.90
2018-03-20T23:40:17.237Z,99.90
2018-03-20T23:42:45.507Z,99.90
2018-03-20T23:45:13.770Z,99.90
2018-03-20T23:47:42.805Z,99.90
2018-03-20T23:50:11.101Z,99.90
2018-03-20T23:52:39.363Z,99.90
2018-03-20T23:55:07.619Z,99.90
2018-03-20T23:57:35.943Z,99.90
